createdAt,value
2019-02-23T00:04:18.473Z,12.4
2019-02-23T00:14:17.679Z,12.9
2019-02-23T00:24:16.889Z,12.5
2019-02-23T00:34:16.093Z,13.1
2019-02-23T00:44:15.297Z,13.1
2019-02-23T00:54:14.502Z,13.2
2019-02-23T01:04:13.706Z,13.1
2019-02-23T01:14:12.963Z,12.9
2019-02-23T01:24:12.116Z,13.1
2019-02-23T01:34:11.330Z,13.1
2019-02-23T01:44:10.533Z,12.9
2019-02-23T01:54:09.744Z,13
2019-02-23T02:04:08.954Z,13.2
2019-02-23T02:14:08.167Z,12.5
2019-02-23T02:24:07.368Z,13.1
2019-02-23T02:34:06.593Z,13.1
2019-02-23T02:44:05.780Z,12.8
2019-02-23T02:54:04.986Z,12.5
2019-02-23T03:04:04.190Z,12.5
2019-02-23T03:14:03.395Z,12.6
2019-02-23T03:24:02.599Z,13.2
2019-02-23T03:34:02.810Z,12.4
2019-02-23T03:44:02.011Z,12.3
2019-02-23T03:54:01.214Z,12.6
2019-02-23T04:04:00.417Z,12.5
2019-02-23T04:13:59.620Z,12.4
2019-02-23T04:23:58.827Z,13.1
2019-02-23T04:33:58.025Z,13
2019-02-23T04:43:57.228Z,13.1
2019-02-23T04:53:56.430Z,13.1
2019-02-23T05:03:55.635Z,12.6
2019-02-23T05:08:48.924Z,12.9
2019-02-23T05:18:48.126Z,12.5
2019-02-23T05:28:47.329Z,13.1
2019-02-23T05:38:46.530Z,12.8
2019-02-23T05:48:45.731Z,12.3
2019-02-23T05:58:44.935Z,13
2019-02-23T06:08:44.146Z,12.9
2019-02-23T06:18:43.433Z,12.7
2019-02-23T06:28:42.720Z,12.5
2019-02-23T06:38:42.017Z,12.7
2019-02-23T06:48:41.312Z,12.7
2019-02-23T06:58:40.598Z,13
2019-02-23T07:08:39.850Z,12.6
2019-02-23T07:18:39.057Z,12.6
2019-02-23T07:28:38.260Z,13
2019-02-23T07:38:37.468Z,12.7
2019-02-23T07:48:36.709Z,13.3
2019-02-23T07:58:35.895Z,13.8
2019-02-23T08:08:35.102Z,13.3
2019-02-23T08:18:34.316Z,14.3
2019-02-23T08:28:33.526Z,14.5
2019-02-23T08:38:32.742Z,13.9
2019-02-23T08:48:33.430Z,14.1
2019-02-23T08:58:31.160Z,13.9
2019-02-23T09:08:30.371Z,14.3
2019-02-23T09:18:29.581Z,14.7
2019-02-23T09:28:28.789Z,14.5
2019-02-23T09:38:27.998Z,14.4
2019-02-23T09:48:27.205Z,14.4
2019-02-23T09:58:26.412Z,14.4
2019-02-23T10:08:25.619Z,14.6
2019-02-23T10:18:24.823Z,14.4
2019-02-23T10:28:24.030Z,14.4
2019-02-23T10:38:23.236Z,14.2
2019-02-23T10:48:22.449Z,14.2
2019-02-23T10:58:21.654Z,14.3
2019-02-23T11:08:20.871Z,13.8
2019-02-23T11:13:32.856Z,14.4
2019-02-23T11:23:32.067Z,14
2019-02-23T11:33:31.277Z,14.7
2019-02-23T11:43:30.486Z,13.8
2019-02-23T11:53:29.704Z,14.4
2019-02-23T12:03:28.907Z,14.4
2019-02-23T12:13:28.128Z,13.8
2019-02-23T12:23:27.455Z,14.6
2019-02-23T12:33:26.714Z,13.8
2019-02-23T12:43:26.010Z,13.8
2019-02-23T12:53:25.300Z,14.2
2019-02-23T13:03:24.587Z,14.4
2019-02-23T13:13:23.835Z,14.1
2019-02-23T13:23:23.040Z,14.7
2019-02-23T13:33:22.245Z,14.1
2019-02-23T13:43:21.481Z,14
2019-02-23T13:53:20.661Z,13.1
2019-02-23T14:03:19.865Z,12.7
2019-02-23T14:13:19.071Z,13.1
2019-02-23T14:23:18.282Z,12.5
2019-02-23T14:33:17.491Z,12.6
2019-02-23T14:43:16.742Z,12.7
2019-02-23T14:53:15.924Z,13
2019-02-23T15:03:15.112Z,12.6
2019-02-23T15:13:14.318Z,12.5
2019-02-23T15:23:13.529Z,12.8
2019-02-23T15:33:12.740Z,12.9
2019-02-23T15:43:11.953Z,13.2
2019-02-23T15:53:11.373Z,13
2019-02-23T16:03:10.374Z,13
2019-02-23T16:13:09.596Z,13.1
2019-02-23T16:23:08.805Z,12.6
2019-02-23T16:33:08.042Z,13
2019-02-23T16:43:07.232Z,13.1
2019-02-23T16:53:06.445Z,12.9
2019-02-23T17:03:05.651Z,13.2
2019-02-23T17:13:04.858Z,13.1
2019-02-23T17:23:04.850Z,13.2
2019-02-23T17:33:04.057Z,13.2
2019-02-23T17:43:03.267Z,13
2019-02-23T17:53:02.711Z,12.8
2019-02-23T18:03:01.696Z,12.9
2019-02-23T18:13:00.907Z,13.2
2019-02-23T18:23:00.123Z,12.8
2019-02-23T18:32:59.335Z,12.5
2019-02-23T18:42:58.548Z,12.5
2019-02-23T18:52:57.761Z,13
2019-02-23T19:02:56.971Z,12.5
2019-02-23T19:12:56.178Z,12.5
2019-02-23T19:22:55.389Z,12.9
2019-02-23T19:32:54.605Z,12.5
2019-02-23T19:42:53.813Z,13.2
2019-02-23T19:52:53.027Z,12.5
2019-02-23T20:02:52.238Z,12.5
2019-02-23T20:12:51.447Z,13
2019-02-23T20:22:50.667Z,12.9
2019-02-23T20:32:49.866Z,12.7
2019-02-23T20:42:49.075Z,12.4
2019-02-23T20:52:48.283Z,12.5
2019-02-23T21:02:47.495Z,12.5
2019-02-23T21:12:46.712Z,13
2019-02-23T21:22:45.920Z,12.9
2019-02-23T21:32:45.133Z,12.4
2019-02-23T21:42:44.565Z,13.2
2019-02-23T21:52:43.567Z,13.2
2019-02-23T22:02:42.766Z,13.2
2019-02-23T22:12:41.972Z,13.2
2019-02-23T22:22:41.210Z,13.1
2019-02-23T22:32:40.409Z,13
2019-02-23T22:42:39.597Z,12.6
2019-02-23T22:52:38.808Z,12.3
2019-02-23T23:02:38.016Z,12.9
2019-02-23T23:12:37.224Z,13
2019-02-23T23:22:36.430Z,12.5
2019-02-23T23:32:35.637Z,12.7
2019-02-23T23:42:34.843Z,12.8
2019-02-23T23:52:34.049Z,13.1
